Terminal Aerodrome Forecast
Issued by NWS Louisville, KY

Home | Current Version | Previous Version | Text Only | Print | Product List | Glossary On
Versions: 1 2 3 4 5 6 7 8 9 10 11 12 13 14 15 16 17 18 19 20
982
FTUS43 KLMK 211122
TAFSDF
TAF
KSDF 211122Z 2112/2218 19008KT P6SM SCT250
     FM211400 22013G19KT P6SM FEW110 BKN250
     FM212300 25009KT P6SM SCT100 BKN200
     FM220200 29010KT P6SM SCT040 BKN110
     FM220500 33008KT P6SM FEW060 SCT120=

USA.gov is the U.S. government's official web portal to all federal, state and local government web resources and services.